createdAt,value
2023-02-24T00:02:20.343Z,80.45
2023-02-24T00:05:23.832Z,77.85
2023-02-24T00:08:26.178Z,72.28
2023-02-24T00:11:28.404Z,72.82
2023-02-24T00:14:34.480Z,74.05
2023-02-24T00:17:38.701Z,76.20
2023-02-24T00:20:41.071Z,72.28
2023-02-24T00:23:47.160Z,75.55
2023-02-24T00:26:59.554Z,81.63
2023-02-24T00:30:01.938Z,75.00
2023-02-24T00:33:07.011Z,77.55
2023-02-24T00:36:12.490Z,74.35
2023-02-24T00:39:14.721Z,77.55
2023-02-24T00:42:17.402Z,75.70
2023-02-24T00:45:19.562Z,77.55
2023-02-24T00:48:21.796Z,79.35
2023-02-24T00:51:27.301Z,77.20
2023-02-24T00:54:30.246Z,72.88
2023-02-24T00:57:33.623Z,74.13
2023-02-24T01:00:36.988Z,75.55
2023-02-24T01:03:39.290Z,80.32
2023-02-24T01:06:46.853Z,77.30
2023-02-24T01:09:50.996Z,76.53
2023-02-24T01:12:54.241Z,77.30
2023-02-24T01:16:02.436Z,82.07
2023-02-24T01:19:05.956Z,83.15
2023-02-24T01:22:10.286Z,79.22
2023-02-24T01:25:12.617Z,80.80
2023-02-24T01:28:14.803Z,77.30
2023-02-24T01:31:21.349Z,77.60
2023-02-24T01:34:27.576Z,76.38
2023-02-24T01:37:33.068Z,78.63
2023-02-24T01:40:35.412Z,79.00
2023-02-24T01:44:14.039Z,80.35
2023-02-24T01:47:18.631Z,78.15
2023-02-24T01:50:23.536Z,75.53
2023-02-24T01:53:27.389Z,81.63
2023-02-24T01:56:32.431Z,81.15
2023-02-24T01:59:38.199Z,81.55
2023-02-24T02:02:44.078Z,81.93
2023-02-24T02:05:49.753Z,78.35
2023-02-24T02:08:52.632Z,76.95
2023-02-24T02:11:54.898Z,83.28
2023-02-24T02:14:59.611Z,79.70
2023-02-24T02:18:38.493Z,87.30
2023-02-24T02:21:52.016Z,76.65
2023-02-24T02:25:09.741Z,76.85
2023-02-24T02:28:33.606Z,79.38
2023-02-24T02:31:51.547Z,80.53
2023-02-24T02:35:19.292Z,76.47
2023-02-24T02:38:38.133Z,76.97
2023-02-24T02:42:04.998Z,74.25
2023-02-24T02:45:27.929Z,74.95
2023-02-24T02:48:41.305Z,81.28
2023-02-24T02:51:53.970Z,81.80
2023-02-24T02:55:10.035Z,81.25
2023-02-24T02:58:20.284Z,75.88
2023-02-24T03:04:30.416Z,79.00
2023-02-24T03:07:40.727Z,78.35
2023-02-24T03:13:51.119Z,77.45
2023-02-24T03:16:56.393Z,76.32
2023-02-24T03:20:13.180Z,81.55
2023-02-24T03:23:22.097Z,79.80
2023-02-24T03:26:38.070Z,77.95
2023-02-24T03:29:55.576Z,72.70
2023-02-24T03:33:20.088Z,78.70
2023-02-24T03:36:23.337Z,74.63
2023-02-24T03:39:26.072Z,76.05
2023-02-24T03:42:44.733Z,78.30
2023-02-24T03:45:47.091Z,81.13
2023-02-24T03:48:59.559Z,74.32
2023-02-24T03:52:27.271Z,74.32
2023-02-24T03:56:03.899Z,75.30
2023-02-24T03:59:35.320Z,67.97
2023-02-24T04:02:37.713Z,74.43
2023-02-24T04:05:53.127Z,77.28
2023-02-24T04:09:26.795Z,74.18
2023-02-24T04:12:56.075Z,75.18
2023-02-24T04:16:09.073Z,74.55
2023-02-24T04:19:17.515Z,73.57
2023-02-24T04:22:24.805Z,72.57
2023-02-24T04:25:29.482Z,76.50
2023-02-24T04:28:33.977Z,71.15
2023-02-24T04:31:39.316Z,77.32
2023-02-24T04:34:42.663Z,70.50
2023-02-24T04:37:44.979Z,73.80
2023-02-24T04:40:49.917Z,71.60
2023-02-24T04:43:52.215Z,71.57
2023-02-24T04:46:54.510Z,80.28
2023-02-24T04:49:57.451Z,78.05
2023-02-24T04:53:02.500Z,76.70
2023-02-24T04:56:09.346Z,72.47
2023-02-24T04:59:12.248Z,78.65
2023-02-24T05:02:18.266Z,76.50
2023-02-24T05:05:27.767Z,76.00
2023-02-24T05:08:31.149Z,76.35
2023-02-24T05:11:35.017Z,78.13
2023-02-24T05:14:39.515Z,75.13
2023-02-24T05:17:42.057Z,73.68
2023-02-24T05:21:05.902Z,75.95
2023-02-24T05:24:08.624Z,72.93
2023-02-24T05:27:10.868Z,75.80
2023-02-24T05:30:14.669Z,74.68
2023-02-24T05:33:21.694Z,80.05
2023-02-24T05:36:25.429Z,76.53
2023-02-24T05:39:28.544Z,69.35
2023-02-24T05:42:35.138Z,76.82
2023-02-24T05:45:37.639Z,75.65
2023-02-24T05:48:40.049Z,74.45
2023-02-24T05:51:54.863Z,75.85
2023-02-24T05:54:57.495Z,80.32
2023-02-24T05:57:59.573Z,77.78
2023-02-24T06:01:08.903Z,69.22
2023-02-24T06:04:21.011Z,74.57
2023-02-24T06:07:25.854Z,76.38
2023-02-24T06:10:28.368Z,76.47
2023-02-24T06:13:30.594Z,75.15
2023-02-24T06:16:34.164Z,75.53
2023-02-24T06:19:36.628Z,74.28
2023-02-24T06:22:42.538Z,74.00
2023-02-24T06:25:45.066Z,71.80
2023-02-24T06:28:48.182Z,74.45
2023-02-24T06:31:50.436Z,76.38
2023-02-24T06:34:54.074Z,72.82
2023-02-24T06:37:56.408Z,71.88
2023-02-24T06:41:04.446Z,71.40
2023-02-24T06:44:06.786Z,75.30
2023-02-24T06:47:13.360Z,75.70
2023-02-24T06:50:23.536Z,75.75
2023-02-24T06:53:26.839Z,74.72
2023-02-24T06:56:30.797Z,75.60
2023-02-24T06:59:34.385Z,67.30
2023-02-24T07:02:39.777Z,70.65
2023-02-24T07:06:11.287Z,74.50
2023-02-24T07:09:16.167Z,75.43
2023-02-24T07:12:21.282Z,71.75
2023-02-24T07:15:23.598Z,72.50
2023-02-24T07:18:26.856Z,70.57
2023-02-24T07:21:31.105Z,75.22
2023-02-24T07:24:39.288Z,75.45
2023-02-24T07:27:42.858Z,74.00
2023-02-24T07:30:45.860Z,77.40
2023-02-24T07:33:48.796Z,75.40
2023-02-24T07:36:54.798Z,78.80
2023-02-24T07:39:57.358Z,75.95
2023-02-24T07:43:01.370Z,76.22
2023-02-24T07:46:14.434Z,81.40
2023-02-24T07:49:20.504Z,76.28
2023-02-24T07:52:22.951Z,84.97
2023-02-24T07:55:31.343Z,84.72
2023-02-24T07:58:34.436Z,77.10
2023-02-24T08:01:40.850Z,77.45
2023-02-24T08:04:50.222Z,80.90
2023-02-24T08:07:52.766Z,80.72
2023-02-24T08:11:04.182Z,76.38
2023-02-24T08:14:11.081Z,77.72
2023-02-24T08:17:18.925Z,75.80
2023-02-24T08:20:22.137Z,77.78
2023-02-24T08:23:24.444Z,81.28
2023-02-24T08:26:30.987Z,80.65
2023-02-24T08:29:40.465Z,78.63
2023-02-24T08:32:44.000Z,82.03
2023-02-24T08:35:50.800Z,85.50
2023-02-24T08:38:53.214Z,87.30
2023-02-24T08:41:56.146Z,86.72
2023-02-24T08:44:58.460Z,84.82
2023-02-24T08:48:00.882Z,83.07
2023-02-24T08:51:15.160Z,85.75
2023-02-24T08:54:27.463Z,88.78
2023-02-24T08:57:29.899Z,91.28
2023-02-24T09:00:50.698Z,88.00
2023-02-24T09:03:59.058Z,91.18
2023-02-24T09:07:11.714Z,87.68
2023-02-24T09:10:18.182Z,88.85
2023-02-24T09:13:20.357Z,95.00
2023-02-24T09:16:23.754Z,84.68
2023-02-24T09:19:41.164Z,92.47
2023-02-24T09:22:57.430Z,89.05
2023-02-24T09:26:11.241Z,89.78
2023-02-24T09:29:32.376Z,84.50
2023-02-24T09:32:35.108Z,90.60
2023-02-24T09:35:41.954Z,91.65
2023-02-24T09:39:01.566Z,91.10
2023-02-24T09:42:09.533Z,87.97
2023-02-24T09:45:33.459Z,83.88
2023-02-24T09:48:45.176Z,84.95
2023-02-24T09:51:53.489Z,86.57
2023-02-24T09:55:25.205Z,83.13
2023-02-24T09:58:43.830Z,80.80
2023-02-24T10:01:48.069Z,85.90
2023-02-24T10:05:07.564Z,87.20
2023-02-24T10:08:20.403Z,89.78
2023-02-24T10:11:33.422Z,88.88
2023-02-24T10:15:20.033Z,75.22
2023-02-24T10:18:33.251Z,79.93
2023-02-24T10:21:49.616Z,87.82
2023-02-24T10:25:11.079Z,81.60
2023-02-24T10:28:36.180Z,66.32
2023-02-24T10:31:57.943Z,73.25
2023-02-24T10:35:01.631Z,82.63
2023-02-24T10:38:05.599Z,83.43
2023-02-24T10:41:10.425Z,86.28
2023-02-24T10:44:20.083Z,82.35
2023-02-24T10:47:31.370Z,81.30
2023-02-24T10:50:55.115Z,84.97
2023-02-24T10:54:42.629Z,77.90
2023-02-24T10:57:59.279Z,72.18
2023-02-24T11:01:18.468Z,82.72
2023-02-24T11:04:33.878Z,77.13
2023-02-24T11:07:55.909Z,81.07
2023-02-24T11:11:07.305Z,70.25
2023-02-24T11:14:49.397Z,79.57
2023-02-24T11:17:57.179Z,80.10
2023-02-24T11:21:12.613Z,75.75
2023-02-24T11:24:19.175Z,83.65
2023-02-24T11:27:23.706Z,81.00
2023-02-24T11:30:49.902Z,77.63
2023-02-24T11:34:29.289Z,84.65
2023-02-24T11:37:43.161Z,70.15
2023-02-24T11:40:52.268Z,74.88
2023-02-24T11:44:07.300Z,64.28
2023-02-24T11:47:20.241Z,65.60
2023-02-24T11:50:37.108Z,76.60
2023-02-24T11:53:53.783Z,62.83
2023-02-24T11:56:59.497Z,63.75
2023-02-24T12:00:20.659Z,71.13
2023-02-24T12:03:35.376Z,69.88
2023-02-24T12:06:57.107Z,67.05
2023-02-24T12:10:16.647Z,62.72
2023-02-24T12:16:46.164Z,65.35
2023-02-24T12:20:07.455Z,62.88
2023-02-24T12:23:18.330Z,54.97
2023-02-24T12:26:42.814Z,69.03
2023-02-24T12:30:23.002Z,71.07
2023-02-24T12:36:49.264Z,58.60
2023-02-24T12:40:15.637Z,52.40
2023-02-24T12:43:29.578Z,62.03
2023-02-24T12:46:35.441Z,55.97
2023-02-24T12:49:37.532Z,58.42
2023-02-24T12:52:50.391Z,61.35
2023-02-24T12:56:04.454Z,61.95
2023-02-24T12:59:10.280Z,59.88
2023-02-24T13:02:30.697Z,59.63
2023-02-24T13:05:43.930Z,59.58
2023-02-24T13:08:58.942Z,52.88
2023-02-24T13:12:29.297Z,63.30
2023-02-24T13:15:31.676Z,59.95
2023-02-24T13:18:36.983Z,60.47
2023-02-24T13:21:40.102Z,53.45
2023-02-24T13:25:08.686Z,69.07
2023-02-24T13:28:24.369Z,65.80
2023-02-24T13:31:27.489Z,58.60
2023-02-24T13:34:43.477Z,56.67
2023-02-24T13:37:48.213Z,61.92
2023-02-24T13:40:50.999Z,60.78
2023-02-24T13:44:21.002Z,65.70
2023-02-24T13:47:32.412Z,71.38
2023-02-24T13:50:37.759Z,65.75
2023-02-24T13:53:57.717Z,59.17
2023-02-24T13:57:21.600Z,60.08
2023-02-24T14:00:26.484Z,67.47
2023-02-24T14:03:29.843Z,66.88
2023-02-24T14:06:32.311Z,71.78
2023-02-24T14:09:46.239Z,62.72
2023-02-24T14:12:49.888Z,65.40
2023-02-24T14:15:53.563Z,66.53
2023-02-24T14:18:57.961Z,70.50
2023-02-24T14:22:01.318Z,58.08
2023-02-24T14:25:05.437Z,61.28
2023-02-24T14:28:19.085Z,60.60
2023-02-24T14:31:23.409Z,63.88
2023-02-24T14:34:28.674Z,62.25
2023-02-24T14:37:31.781Z,54.58
2023-02-24T14:40:33.982Z,60.50
2023-02-24T14:43:43.060Z,51.28
2023-02-24T14:46:52.740Z,45.67
2023-02-24T14:50:03.060Z,43.20
2023-02-24T14:53:10.712Z,64.10
2023-02-24T14:56:13.879Z,61.80
2023-02-24T14:59:30.000Z,57.30
2023-02-24T15:02:33.692Z,61.38
2023-02-24T15:05:45.016Z,69.10
2023-02-24T15:08:50.748Z,62.85
2023-02-24T15:11:55.765Z,61.45
2023-02-24T15:15:04.801Z,59.78
2023-02-24T15:18:25.905Z,58.10
2023-02-24T15:21:40.399Z,60.83
2023-02-24T15:24:42.900Z,60.78
2023-02-24T15:28:01.896Z,59.33
2023-02-24T15:31:15.781Z,57.83
2023-02-24T15:34:25.544Z,60.10
2023-02-24T15:37:42.085Z,61.20
2023-02-24T15:40:53.104Z,60.05
2023-02-24T15:43:56.472Z,58.95
2023-02-24T15:47:01.037Z,55.65
2023-02-24T15:50:03.381Z,60.03
2023-02-24T15:53:05.618Z,57.28
2023-02-24T15:56:07.851Z,59.75
2023-02-24T15:59:17.981Z,57.35
2023-02-24T16:02:24.369Z,56.50
2023-02-24T16:05:26.972Z,63.15
2023-02-24T16:08:29.268Z,55.47
2023-02-24T16:11:39.123Z,56.25
2023-02-24T16:14:42.404Z,59.10
2023-02-24T16:17:45.834Z,55.85
2023-02-24T16:20:56.782Z,54.63
2023-02-24T16:23:59.176Z,55.35
2023-02-24T16:27:01.357Z,58.83
2023-02-24T16:30:04.324Z,55.95
2023-02-24T16:33:06.546Z,56.20
2023-02-24T16:36:13.413Z,56.10
2023-02-24T16:39:15.664Z,57.78
2023-02-24T16:42:20.194Z,61.75
2023-02-24T16:45:28.497Z,72.40
2023-02-24T16:48:34.762Z,59.85
2023-02-24T16:51:39.239Z,67.82
2023-02-24T16:54:41.441Z,60.47
2023-02-24T16:57:43.854Z,62.10
2023-02-24T17:00:49.998Z,69.95
2023-02-24T17:03:57.060Z,66.50
2023-02-24T17:06:59.320Z,66.88
2023-02-24T17:10:01.443Z,70.15
2023-02-24T17:13:03.536Z,66.30
2023-02-24T17:16:06.008Z,66.05
2023-02-24T17:19:08.931Z,62.78
2023-02-24T17:22:11.177Z,68.88
2023-02-24T17:25:19.760Z,70.22
2023-02-24T17:28:21.976Z,71.22
2023-02-24T17:31:24.294Z,73.90
2023-02-24T17:34:27.491Z,69.25
2023-02-24T17:37:29.756Z,73.00
2023-02-24T17:40:31.910Z,73.88
2023-02-24T17:43:34.090Z,69.30
2023-02-24T17:46:36.422Z,66.13
2023-02-24T17:49:39.813Z,75.72
2023-02-24T17:52:42.029Z,66.20
2023-02-24T17:56:01.644Z,63.08
2023-02-24T17:59:04.728Z,69.72
2023-02-24T18:02:07.114Z,68.70
2023-02-24T18:05:10.301Z,75.88
2023-02-24T18:08:14.363Z,68.90
2023-02-24T18:11:19.016Z,70.03
2023-02-24T18:14:21.642Z,68.72
2023-02-24T18:17:24.229Z,80.10
2023-02-24T18:20:26.384Z,72.55
2023-02-24T18:23:28.879Z,76.85
2023-02-24T18:26:31.866Z,75.93
2023-02-24T18:29:34.138Z,80.25
2023-02-24T18:32:36.517Z,73.43
2023-02-24T18:35:39.003Z,67.57
2023-02-24T18:38:41.712Z,74.47
2023-02-24T18:41:43.932Z,77.65
2023-02-24T18:44:46.250Z,78.55
2023-02-24T18:47:51.421Z,83.10
2023-02-24T18:50:54.696Z,76.80
2023-02-24T18:54:00.866Z,77.32
2023-02-24T18:57:03.264Z,70.18
2023-02-24T19:00:06.796Z,66.28
2023-02-24T19:03:08.970Z,69.18
2023-02-24T19:06:12.462Z,66.78
2023-02-24T19:09:15.126Z,67.13
2023-02-24T19:12:19.363Z,67.10
2023-02-24T19:15:22.605Z,68.00
2023-02-24T19:18:24.798Z,67.10
2023-02-24T19:21:28.956Z,62.83
2023-02-24T19:24:31.315Z,68.65
2023-02-24T19:27:33.478Z,68.63
2023-02-24T19:30:35.639Z,72.47
2023-02-24T19:33:37.825Z,67.63
2023-02-24T19:36:41.308Z,70.10
2023-02-24T19:39:43.602Z,69.78
2023-02-24T19:42:47.343Z,70.35
2023-02-24T19:45:49.630Z,61.30
2023-02-24T19:48:51.776Z,69.13
2023-02-24T19:51:55.563Z,65.43
2023-02-24T19:54:58.113Z,68.25
2023-02-24T19:58:00.363Z,67.75
2023-02-24T20:01:11.559Z,71.78
2023-02-24T20:04:13.918Z,60.40
2023-02-24T20:07:16.153Z,63.80
2023-02-24T20:10:18.393Z,64.88
2023-02-24T20:13:20.524Z,62.22
2023-02-24T20:16:27.355Z,63.42
2023-02-24T20:19:29.574Z,65.50
2023-02-24T20:22:31.878Z,61.33
2023-02-24T20:25:34.084Z,64.30
2023-02-24T20:28:36.291Z,59.25
2023-02-24T20:31:39.369Z,58.10
2023-02-24T20:34:41.945Z,58.33
2023-02-24T20:37:44.156Z,57.25
2023-02-24T20:40:55.608Z,62.63
2023-02-24T20:43:57.877Z,57.47
2023-02-24T20:47:00.145Z,61.15
2023-02-24T20:50:03.375Z,56.60
2023-02-24T20:53:07.922Z,63.55
2023-02-24T20:56:19.776Z,57.67
2023-02-24T20:59:22.525Z,56.83
2023-02-24T21:02:24.741Z,60.50
2023-02-24T21:05:27.831Z,61.97
2023-02-24T21:08:30.301Z,62.10
2023-02-24T21:11:33.091Z,61.33
2023-02-24T21:14:35.386Z,57.88
2023-02-24T21:17:38.428Z,59.60
2023-02-24T21:20:40.563Z,57.35
2023-02-24T21:23:43.934Z,61.20
2023-02-24T21:26:47.524Z,59.47
2023-02-24T21:29:49.842Z,61.10
2023-02-24T21:32:52.050Z,62.17
2023-02-24T21:35:59.182Z,59.95
2023-02-24T21:39:01.278Z,57.47
2023-02-24T21:42:03.409Z,57.10
2023-02-24T21:45:09.980Z,55.90
2023-02-24T21:48:12.159Z,60.38
2023-02-24T21:51:14.584Z,59.10
2023-02-24T21:54:18.365Z,56.85
2023-02-24T21:57:21.015Z,56.50
2023-02-24T22:00:24.207Z,63.15
2023-02-24T22:03:26.410Z,58.72
2023-02-24T22:06:32.090Z,62.22
2023-02-24T22:09:34.546Z,53.15
2023-02-24T22:12:36.710Z,56.53
2023-02-24T22:15:39.267Z,54.13
2023-02-24T22:18:41.624Z,57.97
2023-02-24T22:21:43.870Z,61.10
2023-02-24T22:24:46.160Z,55.13
2023-02-24T22:27:48.228Z,56.83
2023-02-24T22:30:57.840Z,60.42
2023-02-24T22:34:00.999Z,55.67
2023-02-24T22:37:03.320Z,55.05
2023-02-24T22:40:06.062Z,51.78
2023-02-24T22:43:08.812Z,62.25
2023-02-24T22:46:17.652Z,58.17
2023-02-24T22:49:19.896Z,50.47
2023-02-24T22:52:22.196Z,54.50
2023-02-24T22:55:25.247Z,55.03
2023-02-24T22:58:28.123Z,54.78
2023-02-24T23:01:33.247Z,53.85
2023-02-24T23:04:35.583Z,53.50
2023-02-24T23:07:37.691Z,55.65
2023-02-24T23:10:39.853Z,60.88
2023-02-24T23:13:44.821Z,60.42
2023-02-24T23:16:54.748Z,55.72
2023-02-24T23:19:58.818Z,52.90
2023-02-24T23:23:01.919Z,57.35
2023-02-24T23:26:05.545Z,53.08
2023-02-24T23:29:08.197Z,53.15
2023-02-24T23:32:10.514Z,54.58
2023-02-24T23:35:13.509Z,47.28
2023-02-24T23:38:16.560Z,57.90
2023-02-24T23:41:18.794Z,60.42
2023-02-24T23:44:21.507Z,60.40
2023-02-24T23:47:23.790Z,53.30
2023-02-24T23:50:26.315Z,61.72
2023-02-24T23:53:28.563Z,57.83
2023-02-24T23:56:30.801Z,57.20
2023-02-24T23:59:33.055Z,63.72
